Time;durP1;ratioP1;P1;durP2;ratioP2;P2;SDS_P1;SDS_P2;PMS_P1;PMS_P2;Temp;Humidity;BMP_temperature;BMP_pressure;BME280_temperature;BME280_humidity;BME280_pressure;Samples;Min_cycle;Max_cycle;Signal;HPM_P1;HPM_P2
2022/04/30 00:00:51;;;;;;;5.45;4.70;;;;;;;11.89;65.13;101457.31;5035184;28;20049;-67
2022/04/30 00:03:31;;;;;;;5.72;3.65;;;;;;;12.03;63.93;101461.22;5035141;28;20049;-67
2022/04/30 00:06:10;;;;;;;5.35;3.50;;;;;;;12.12;63.31;101455.25;5021664;28;20060;-67
2022/04/30 00:08:38;;;;;;;6.07;4.40;;;;;;;11.99;64.02;101451.88;5029947;28;20050;-67
2022/04/30 00:11:07;;;;;;;4.85;3.97;;;;;;;11.83;64.45;101456.44;5034813;28;20453;-67
2022/04/30 00:13:37;;;;;;;5.65;3.92;;;;;;;11.95;63.61;101453.50;5034491;28;20056;-68
2022/04/30 00:16:05;;;;;;;5.38;4.00;;;;;;;12.01;63.42;101449.69;5026599;28;20100;-68
2022/04/30 00:18:32;;;;;;;6.40;4.00;;;;;;;12.12;63.45;101444.28;5034305;28;20057;-68
2022/04/30 00:21:00;;;;;;;5.38;3.92;;;;;;;12.05;64.79;101445.34;5034986;28;20042;-67
2022/04/30 00:23:28;;;;;;;7.75;4.53;;;;;;;11.97;64.10;101443.06;5030091;28;20506;-68
2022/04/30 00:25:56;;;;;;;5.03;4.07;;;;;;;11.95;64.60;101445.28;5033634;28;20045;-68
2022/04/30 00:28:25;;;;;;;8.73;4.20;;;;;;;11.91;64.34;101438.66;5034287;28;20054;-68
2022/04/30 00:30:54;;;;;;;6.05;4.45;;;;;;;11.93;64.29;101433.75;5032762;28;20060;-68
2022/04/30 00:33:23;;;;;;;4.43;3.88;;;;;;;12.02;64.07;101423.91;5034433;28;20053;-68
2022/04/30 00:35:52;;;;;;;5.53;3.95;;;;;;;12.06;64.39;101422.31;5023428;28;20060;-68
2022/04/30 00:38:20;;;;;;;7.00;3.83;;;;;;;12.02;63.86;101426.63;5026509;28;20128;-68
2022/04/30 00:40:47;;;;;;;5.75;4.38;;;;;;;11.96;64.91;101424.97;5034166;28;20054;-68
2022/04/30 00:43:15;;;;;;;4.53;3.72;;;;;;;12.00;64.12;101420.59;5028563;28;20046;-68
2022/04/30 00:45:48;;;;;;;5.70;4.55;;;;;;;11.87;64.90;101426.59;5034243;28;20052;-68
2022/04/30 00:48:16;;;;;;;4.68;3.90;;;;;;;11.85;64.39;101421.38;5033015;28;20046;-68
2022/04/30 00:50:44;;;;;;;8.25;4.70;;;;;;;11.82;66.34;101417.25;5033627;28;20518;-68
2022/04/30 00:53:16;;;;;;;5.80;4.07;;;;;;;11.83;64.96;101416.16;5032849;28;20045;-67
2022/04/30 00:55:47;;;;;;;6.80;4.45;;;;;;;11.62;66.36;101419.88;5030793;28;20049;-67
2022/04/30 00:58:20;;;;;;;6.40;4.10;;;;;;;11.59;66.58;101423.97;5033899;28;20049;-67
2022/04/30 01:00:50;;;;;;;7.15;4.30;;;;;;;11.59;67.16;101414.94;5031251;28;20061;-68
2022/04/30 01:03:32;;;;;;;6.40;4.35;;;;;;;11.55;66.80;101417.41;5030685;28;20049;-67
2022/04/30 01:06:06;;;;;;;6.18;3.72;;;;;;;11.51;67.07;101417.09;5033869;28;20042;-67
2022/04/30 01:08:33;;;;;;;6.30;3.83;;;;;;;11.38;68.03;101409.34;5033594;28;20056;-67
2022/04/30 01:11:06;;;;;;;7.53;3.55;;;;;;;11.43;66.83;101398.41;5033984;28;20041;-67
2022/04/30 01:13:36;;;;;;;4.95;3.53;;;;;;;11.37;67.70;101407.69;5033917;28;20045;-67
2022/04/30 01:16:06;;;;;;;6.45;3.58;;;;;;;11.40;67.66;101402.50;5033294;28;20049;-67
2022/04/30 01:18:36;;;;;;;4.88;3.80;;;;;;;11.33;67.63;101409.31;5033571;28;20056;-67
2022/04/30 01:21:10;;;;;;;5.47;3.83;;;;;;;11.26;67.83;101404.91;5028681;28;20510;-67
2022/04/30 01:23:40;;;;;;;;;;;;;;;11.29;67.20;101406.25;5033546;28;20049;-66
2022/04/30 01:26:13;;;;;;;5.75;3.00;;;;;;;11.32;67.32;101399.44;5033113;28;19928;-67
2022/04/30 01:28:43;;;;;;;4.13;2.97;;;;;;;11.28;67.55;101394.50;5033238;28;20407;-67
2022/04/30 01:39:33;;;;;;;6.05;3.53;;;;;;;11.18;67.30;101383.47;5027605;28;20045;-67
2022/04/30 01:42:11;;;;;;;4.60;3.70;;;;;;;11.36;66.41;101381.38;5032669;28;20105;-67
2022/04/30 01:44:46;;;;;;;5.63;3.53;;;;;;;11.34;67.40;101369.88;5031104;28;20396;-67
2022/04/30 01:47:16;;;;;;;5.07;4.13;;;;;;;11.21;67.10;101377.47;5033075;28;20053;-67
2022/04/30 01:49:44;;;;;;;4.75;3.28;;;;;;;11.25;66.38;101375.84;5030364;28;20404;-67
2022/04/30 01:52:13;;;;;;;4.20;3.50;;;;;;;11.16;67.08;101374.69;5031010;28;20045;-67
2022/04/30 01:54:42;;;;;;;4.57;3.65;;;;;;;11.11;66.45;101374.66;5032069;28;20038;-67
2022/04/30 01:57:12;;;;;;;12.25;4.22;;;;;;;11.08;67.23;101372.44;5032285;28;20045;-68
2022/04/30 01:59:40;;;;;;;4.93;3.70;;;;;;;11.01;68.26;101373.50;5032626;28;20099;-67
2022/04/30 02:02:09;;;;;;;3.75;3.30;;;;;;;10.93;67.71;101373.16;5032095;28;20052;-67
2022/04/30 02:04:37;;;;;;;6.45;4.20;;;;;;;10.85;68.34;101369.00;5024102;28;20049;-67
2022/04/30 02:07:05;;;;;;;8.63;3.55;;;;;;;10.83;68.30;101365.69;5031717;28;20041;-67
2022/04/30 02:09:33;;;;;;;4.88;3.30;;;;;;;10.82;68.94;101361.31;5030844;28;20052;-67
2022/04/30 02:12:01;;;;;;;4.88;3.42;;;;;;;10.98;68.16;101363.06;5030967;28;20056;-67
2022/04/30 02:14:30;;;;;;;4.93;3.65;;;;;;;10.98;67.83;101363.06;5031852;28;20503;-67
2022/04/30 02:17:00;;;;;;;4.82;3.55;;;;;;;10.98;68.77;101354.84;5026683;28;20061;-67
2022/04/30 02:20:18;;;;;;;5.90;4.25;;;;;;;11.00;68.19;101363.63;5031717;28;20060;-67
2022/04/30 02:22:18;;;;;;;5.65;4.18;;;;;;;11.04;67.87;101355.72;5031792;28;20053;-67
2022/04/30 02:24:47;;;;;;;5.53;4.00;;;;;;;11.02;67.58;101350.50;5029309;28;20060;-68
2022/04/30 02:27:16;;;;;;;4.35;3.50;;;;;;;10.88;68.85;101341.09;5029416;28;20045;-67
2022/04/30 02:29:44;;;;;;;9.05;4.55;;;;;;;10.80;68.47;101344.31;5031684;28;20049;-67
2022/04/30 02:32:12;;;;;;;5.65;3.90;;;;;;;10.75;68.86;101345.09;5032146;28;20041;-67
2022/04/30 02:34:40;;;;;;;6.68;4.30;;;;;;;10.71;68.88;101341.25;5029054;28;20049;-67
2022/04/30 02:37:13;;;;;;;6.80;4.28;;;;;;;10.64;69.62;101338.72;5019176;28;20061;-67
2022/04/30 02:39:48;;;;;;;6.80;4.10;;;;;;;10.62;70.10;101340.91;5019957;28;20595;-67
2022/04/30 02:42:16;;;;;;;4.93;4.00;;;;;;;10.79;69.71;101334.47;5026853;28;20396;-67
2022/04/30 02:44:43;;;;;;;7.97;4.43;;;;;;;10.68;68.95;101341.75;5025080;28;20033;-67
2022/04/30 02:47:12;;;;;;;7.47;4.20;;;;;;;10.58;72.49;101339.78;5031715;28;20068;-67
2022/04/30 02:49:39;;;;;;;6.22;3.95;;;;;;;10.55;70.17;101340.31;5031768;28;20049;-68
2022/04/30 02:52:07;;;;;;;4.53;4.10;;;;;;;10.53;70.92;101340.56;5032024;28;20045;-68
2022/04/30 02:54:35;;;;;;;5.03;3.95;;;;;;;10.55;70.22;101334.84;5031515;28;20045;-67
2022/04/30 02:57:03;;;;;;;5.85;3.83;;;;;;;10.59;69.09;101333.22;5032102;28;20054;-67
2022/04/30 02:59:58;;;;;;;4.93;3.72;;;;;;;10.58;69.21;101329.66;5031677;28;20408;-67
2022/04/30 03:02:49;;;;;;;5.55;3.83;;;;;;;10.58;69.63;101332.41;5030151;28;20060;-67
2022/04/30 03:05:18;;;;;;;7.90;4.10;;;;;;;10.60;69.92;101343.06;5021551;28;20046;-68
2022/04/30 03:07:47;;;;;;;5.35;3.90;;;;;;;10.69;69.00;101333.28;5019682;28;20046;-68
2022/04/30 03:10:15;;;;;;;8.38;4.45;;;;;;;10.85;68.38;101330.69;5032343;28;20056;-68
2022/04/30 03:12:43;;;;;;;5.15;3.63;;;;;;;11.10;67.29;101326.44;5030242;28;20045;-67
2022/04/30 03:15:11;;;;;;;6.05;3.78;;;;;;;10.95;67.38;101327.97;5024106;28;20053;-67
2022/04/30 03:23:12;;;;;;;5.57;3.60;;;;;;;10.86;68.34;101322.19;5020093;28;20499;-67
2022/04/30 03:25:40;;;;;;;6.07;4.30;;;;;;;10.81;69.97;101326.81;5031341;28;20045;-67
2022/04/30 03:28:08;;;;;;;6.95;3.70;;;;;;;10.66;71.31;101328.31;5032131;28;20060;-67
2022/04/30 03:30:35;;;;;;;5.40;3.58;;;;;;;10.59;70.48;101325.00;5024281;28;20053;-67
2022/04/30 03:33:03;;;;;;;6.05;3.50;;;;;;;10.63;71.26;101328.88;5034585;28;20527;-67
2022/04/30 03:35:31;;;;;;;5.43;3.92;;;;;;;10.58;70.66;101326.94;5027659;28;20508;-67
2022/04/30 03:37:59;;;;;;;4.72;3.47;;;;;;;10.57;71.97;101324.44;5028888;28;20053;-67
2022/04/30 03:40:26;;;;;;;5.85;3.78;;;;;;;10.54;72.06;101331.25;5021607;28;20045;-67
2022/04/30 03:42:54;;;;;;;6.30;4.15;;;;;;;10.52;72.43;101327.97;5032921;28;20049;-67
2022/04/30 03:45:23;;;;;;;5.60;3.83;;;;;;;10.68;71.26;101322.59;5034540;28;20056;-67
2022/04/30 03:47:50;;;;;;;5.90;3.55;;;;;;;10.69;71.79;101322.34;5034807;28;20053;-67
2022/04/30 03:50:18;;;;;;;4.65;3.40;;;;;;;10.68;71.77;101328.91;5035220;28;20037;-68
2022/04/30 03:52:46;;;;;;;4.72;3.60;;;;;;;10.65;73.53;101326.69;5035153;28;20053;-68
2022/04/30 03:55:16;;;;;;;4.63;3.45;;;;;;;10.81;72.44;101313.13;5035165;28;20488;-68
2022/04/30 03:57:44;;;;;;;5.25;3.92;;;;;;;10.84;74.20;101318.06;5034744;28;20053;-68
2022/04/30 04:00:13;;;;;;;7.35;4.53;;;;;;;10.81;73.19;101324.88;5029452;28;20424;-68
2022/04/30 04:02:42;;;;;;;5.68;3.92;;;;;;;10.88;74.45;101330.97;5034784;28;20060;-68
2022/04/30 04:05:12;;;;;;;4.05;3.67;;;;;;;10.81;74.19;101329.53;5034898;28;20064;-68
2022/04/30 04:07:40;;;;;;;4.53;3.90;;;;;;;10.78;73.89;101325.41;5033885;28;20520;-68
2022/04/30 04:10:10;;;;;;;4.70;4.20;;;;;;;10.97;73.49;101327.72;5034335;28;20073;-68
2022/04/30 04:12:37;;;;;;;5.95;4.57;;;;;;;10.93;74.76;101332.91;5028562;28;20048;-68
2022/04/30 04:17:53;;;;;;;5.43;3.90;;;;;;;10.85;73.31;101326.00;5021184;28;20060;-68
2022/04/30 04:20:24;;;;;;;6.18;4.78;;;;;;;10.89;74.11;101321.66;5028578;28;20049;-68
2022/04/30 04:22:55;;;;;;;10.05;4.63;;;;;;;10.92;72.94;101323.06;5034312;28;20045;-68
2022/04/30 04:28:09;;;;;;;7.75;4.88;;;;;;;10.97;71.66;101323.09;5031686;28;20404;-67
2022/04/30 04:30:36;;;;;;;7.70;5.13;;;;;;;10.99;72.23;101318.16;5026640;28;20500;-68
2022/04/30 04:33:04;;;;;;;9.07;4.95;;;;;;;11.10;71.35;101335.47;5025752;28;20052;-68
2022/04/30 04:35:33;;;;;;;5.75;4.82;;;;;;;11.13;71.24;101339.59;5025983;28;20065;-67
2022/04/30 04:38:01;;;;;;;7.88;5.18;;;;;;;11.23;71.77;101325.13;5041955;28;20049;-68
2022/04/30 04:40:29;;;;;;;10.63;5.28;;;;;;;11.30;71.00;101328.47;5034085;28;20050;-68
2022/04/30 04:42:56;;;;;;;7.25;5.18;;;;;;;11.40;70.01;101325.75;5026354;28;20042;-68
2022/04/30 04:45:26;;;;;;;9.10;5.45;;;;;;;11.36;70.37;101326.56;5032325;28;20507;-67
2022/04/30 04:47:55;;;;;;;10.93;5.63;;;;;;;11.36;70.56;101329.31;5020005;28;20057;-67
2022/04/30 04:50:23;;;;;;;9.45;5.68;;;;;;;11.36;70.79;101334.78;5031256;28;20049;-67
2022/04/30 04:52:51;;;;;;;8.25;4.90;;;;;;;11.38;70.41;101327.97;5033134;28;20049;-67
2022/04/30 04:55:18;;;;;;;6.72;5.05;;;;;;;11.43;70.35;101319.75;5033372;28;20045;-67
2022/04/30 04:57:46;;;;;;;8.60;5.25;;;;;;;11.51;69.81;101323.91;5033125;28;20046;-67
2022/04/30 05:00:14;;;;;;;9.07;5.60;;;;;;;11.63;69.49;101325.59;5033754;28;20037;-67
2022/04/30 05:02:43;;;;;;;9.50;5.50;;;;;;;11.73;69.97;101328.34;5033733;28;20041;-67
2022/04/30 05:05:12;;;;;;;8.07;5.75;;;;;;;12.15;67.91;101323.00;5033868;28;20057;-68
2022/04/30 05:07:39;;;;;;;8.57;6.15;;;;;;;12.15;68.62;101328.47;5019720;28;20495;-68
2022/04/30 05:10:07;;;;;;;12.45;6.07;;;;;;;12.19;68.56;101326.84;5032460;28;20057;-68
2022/04/30 05:12:35;;;;;;;8.88;5.53;;;;;;;12.27;69.78;101323.56;5032707;28;20037;-76
2022/04/30 05:15:04;;;;;;;8.73;5.90;;;;;;;12.69;69.36;101307.06;5032400;28;20042;-74
2022/04/30 05:17:32;;;;;;;19.83;6.13;;;;;;;13.02;67.91;101318.56;5033080;28;20049;-74
2022/04/30 05:19:59;;;;;;;9.63;5.90;;;;;;;13.29;66.88;101309.97;5033568;28;20038;-74
2022/04/30 05:22:27;;;;;;;11.50;4.97;;;;;;;13.52;64.64;101326.13;5033401;28;20046;-75
2022/04/30 05:24:55;;;;;;;8.82;5.32;;;;;;;13.79;63.99;101324.91;5032843;28;20046;-75
2022/04/30 05:27:22;;;;;;;6.68;5.72;;;;;;;13.85;63.43;101318.28;5026629;28;20042;-75
2022/04/30 05:29:50;;;;;;;8.55;5.97;;;;;;;13.98;63.59;101323.13;5032401;28;20042;-74
2022/04/30 05:32:18;;;;;;;7.32;4.95;;;;;;;14.11;63.37;101327.19;5033342;28;20064;-75
2022/04/30 05:34:46;;;;;;;8.35;5.88;;;;;;;14.16;64.15;101323.56;5031760;28;20041;-74
2022/04/30 05:37:15;;;;;;;6.50;4.95;;;;;;;14.37;63.07;101323.41;5021140;28;20049;-74
2022/04/30 05:39:57;;;;;;;7.95;4.95;;;;;;;14.47;62.88;101325.28;5033212;28;20045;-75
2022/04/30 05:42:26;;;;;;;6.93;4.88;;;;;;;14.56;62.05;101325.47;5027376;28;20534;-74
2022/04/30 05:44:54;;;;;;;9.65;4.57;;;;;;;14.60;61.22;101323.78;5026508;28;20053;-74
2022/04/30 05:47:26;;;;;;;6.03;4.35;;;;;;;14.72;58.29;101329.72;5024863;28;20045;-75
2022/04/30 05:49:54;;;;;;;5.00;3.90;;;;;;;14.81;55.53;101331.91;5024623;28;20060;-74
2022/04/30 05:52:23;;;;;;;9.30;4.43;;;;;;;14.91;57.09;101331.81;5028348;28;20078;-75
2022/04/30 05:54:52;;;;;;;9.43;3.83;;;;;;;15.03;56.49;101323.97;5031421;28;20406;-75
2022/04/30 05:57:20;;;;;;;5.85;3.92;;;;;;;15.11;58.15;101332.69;5032346;28;20041;-75
2022/04/30 05:59:48;;;;;;;6.80;4.57;;;;;;;15.14;59.58;101324.66;5031975;28;20373;-75
2022/04/30 06:02:15;;;;;;;6.82;4.30;;;;;;;15.28;59.36;101329.47;5032137;28;20034;-75
2022/04/30 06:04:44;;;;;;;6.55;4.32;;;;;;;15.39;59.11;101325.47;5032822;28;20049;-75
2022/04/30 06:07:12;;;;;;;9.73;4.70;;;;;;;15.48;58.85;101322.06;5031925;28;20377;-76
2022/04/30 06:09:43;;;;;;;8.95;4.85;;;;;;;15.67;58.80;101325.69;5032241;28;20506;-75
2022/04/30 06:12:11;;;;;;;14.30;5.32;;;;;;;15.79;59.81;101325.22;5032025;28;20049;-75
2022/04/30 06:14:39;;;;;;;8.48;4.45;;;;;;;15.91;57.98;101326.72;5031277;28;20037;-75
2022/04/30 06:17:09;;;;;;;7.20;4.47;;;;;;;15.96;57.69;101321.16;5032843;28;20045;-75
2022/04/30 06:19:37;;;;;;;11.40;6.15;;;;;;;16.10;57.29;101322.06;5029984;28;20037;-75
2022/04/30 06:22:05;;;;;;;7.65;5.60;;;;;;;16.22;58.77;101318.84;5032780;28;20038;-75
2022/04/30 06:24:33;;;;;;;11.85;7.20;;;;;;;16.32;58.53;101317.03;5031604;28;20403;-75
2022/04/30 06:27:01;;;;;;;14.10;7.75;;;;;;;16.41;57.21;101319.94;5026703;28;20034;-76
2022/04/30 06:29:29;;;;;;;16.02;6.97;;;;;;;16.48;57.35;101315.66;5032310;28;20499;-76
2022/04/30 06:31:57;;;;;;;8.48;6.00;;;;;;;16.63;55.76;101316.53;5032206;28;20046;-76
2022/04/30 06:34:25;;;;;;;9.30;5.97;;;;;;;16.61;54.04;101308.53;5024509;28;20046;-75
2022/04/30 06:36:53;;;;;;;8.82;6.22;;;;;;;16.54;52.35;101313.63;5024518;28;20492;-73
2022/04/30 06:39:21;;;;;;;9.07;5.55;;;;;;;16.71;51.80;101318.56;5035588;28;20068;-76
2022/04/30 06:41:49;;;;;;;8.20;5.47;;;;;;;16.64;51.48;101312.63;5034753;28;20049;-76
2022/04/30 06:44:17;;;;;;;9.90;5.50;;;;;;;16.69;53.12;101317.25;5024072;28;20041;-75
2022/04/30 06:46:45;;;;;;;13.85;5.68;;;;;;;16.89;51.31;101330.72;5033058;28;20045;-76
2022/04/30 06:49:13;;;;;;;10.13;5.18;;;;;;;16.94;49.49;101327.03;5029526;28;20041;-75
2022/04/30 06:51:41;;;;;;;8.00;4.63;;;;;;;17.19;48.53;101322.97;5030494;28;20088;-73
2022/04/30 06:57:16;;;;;;;5.00;3.10;;;;;;;17.28;46.10;101314.78;5030846;28;20044;-75
2022/04/30 06:59:56;;;;;;;4.90;3.20;;;;;;;17.46;44.61;101320.50;5021423;28;20061;-74
2022/04/30 07:02:31;;;;;;;3.63;3.05;;;;;;;17.52;45.74;101321.22;5033463;28;20037;-75
2022/04/30 07:04:59;;;;;;;4.03;2.90;;;;;;;17.59;45.39;101325.19;5034155;28;20046;-74
2022/04/30 07:07:27;;;;;;;3.50;2.80;;;;;;;17.58;44.10;101318.03;5035340;28;20491;-74
2022/04/30 07:09:55;;;;;;;4.80;2.42;;;;;;;17.57;42.72;101312.81;5028158;28;20042;-75
2022/04/30 07:12:23;;;;;;;2.83;2.40;;;;;;;17.51;41.06;101311.28;5029803;28;20396;-75
2022/04/30 07:14:51;;;;;;;4.85;2.72;;;;;;;17.71;40.55;101332.16;5020711;28;20054;-75
2022/04/30 07:17:19;;;;;;;3.25;2.53;;;;;;;17.71;40.46;101327.41;5023226;28;20050;-74
2022/04/30 07:19:47;;;;;;;3.20;2.90;;;;;;;17.78;41.12;101324.25;5031146;28;20046;-75
2022/04/30 07:22:15;;;;;;;4.40;2.72;;;;;;;17.78;41.08;101321.47;5032619;28;20049;-75
2022/04/30 07:24:51;;;;;;;2.72;2.45;;;;;;;17.85;40.11;101318.28;5031468;28;20041;-75
2022/04/30 07:27:19;;;;;;;2.35;2.13;;;;;;;17.78;39.90;101315.94;5027883;28;20046;-76
2022/04/30 07:29:48;;;;;;;4.28;2.65;;;;;;;17.85;39.93;101315.53;5027276;28;20411;-74
2022/04/30 07:32:17;;;;;;;5.80;2.75;;;;;;;18.01;39.63;101318.75;5029950;28;20041;-75
2022/04/30 07:34:44;;;;;;;2.85;2.50;;;;;;;18.18;40.01;101329.16;5032065;28;20435;-76
2022/04/30 07:37:13;;;;;;;2.38;2.17;;;;;;;18.23;38.37;101326.28;5025163;28;20041;-75
2022/04/30 07:39:41;;;;;;;3.13;2.38;;;;;;;18.26;37.95;101327.59;5015694;28;20054;-76
2022/04/30 07:42:10;;;;;;;2.55;2.35;;;;;;;18.24;37.72;101322.38;5008401;28;20047;-75
2022/04/30 07:44:38;;;;;;;5.45;2.45;;;;;;;18.14;36.01;101306.03;5023441;28;20603;-76
2022/04/30 07:47:08;;;;;;;3.08;2.33;;;;;;;18.33;37.13;101308.59;5033417;28;20038;-75
2022/04/30 07:49:36;;;;;;;4.07;2.60;;;;;;;18.48;37.65;101323.22;5034586;28;20057;-75
2022/04/30 07:52:05;;;;;;;2.88;2.38;;;;;;;18.42;36.92;101316.97;5023479;28;20480;-74
2022/04/30 07:54:33;;;;;;;2.95;2.65;;;;;;;18.49;37.21;101316.53;5034671;28;20550;-75
2022/04/30 07:57:01;;;;;;;2.58;2.00;;;;;;;18.47;37.59;101327.91;5034481;28;20399;-75
2022/04/30 07:59:29;;;;;;;2.55;2.30;;;;;;;18.49;35.78;101317.34;5034489;28;20404;-73
2022/04/30 08:01:57;;;;;;;2.13;1.92;;;;;;;18.54;37.38;101319.16;5032855;28;20049;-75
2022/04/30 08:04:25;;;;;;;2.60;2.40;;;;;;;18.61;36.71;101310.38;5034068;28;20044;-75
2022/04/30 08:06:53;;;;;;;3.40;2.47;;;;;;;18.88;35.45;101316.91;5032391;28;20491;-75
2022/04/30 08:09:21;;;;;;;3.40;2.28;;;;;;;18.75;36.10;101319.47;5034063;28;20396;-76
2022/04/30 08:11:49;;;;;;;2.85;2.30;;;;;;;18.85;34.38;101320.31;5034273;28;20037;-75
2022/04/30 08:14:16;;;;;;;2.13;2.00;;;;;;;18.92;34.85;101321.50;5033569;28;20045;-76
2022/04/30 08:16:44;;;;;;;2.53;2.30;;;;;;;19.03;36.00;101319.31;5030544;28;20046;-76
2022/04/30 08:19:13;;;;;;;3.05;2.60;;;;;;;19.02;34.54;101330.69;5033622;28;20041;-75
2022/04/30 08:21:42;;;;;;;2.65;2.45;;;;;;;18.91;36.58;101321.78;5029505;28;20045;-75
2022/04/30 08:24:30;;;;;;;3.03;2.63;;;;;;;19.03;34.97;101319.31;5032995;28;20408;-76
2022/04/30 08:26:59;;;;;;;2.85;2.58;;;;;;;19.17;35.29;101321.13;5026320;28;20034;-75
2022/04/30 08:29:28;;;;;;;2.75;2.10;;;;;;;19.03;34.66;101322.06;5018723;28;20046;-75
2022/04/30 08:31:56;;;;;;;2.50;2.30;;;;;;;19.11;34.36;101325.19;5021357;28;20045;-75
2022/04/30 08:34:24;;;;;;;2.38;2.05;;;;;;;19.16;33.29;101312.00;5014450;28;20045;-75
2022/04/30 08:36:52;;;;;;;2.70;2.40;;;;;;;19.33;32.59;101315.97;5014979;28;20046;-74
2022/04/30 08:39:21;;;;;;;2.22;2.00;;;;;;;19.41;34.47;101311.59;5020932;28;20046;-75
2022/04/30 08:41:51;;;;;;;2.78;2.33;;;;;;;19.37;34.31;101313.34;5019525;28;20062;-75
2022/04/30 08:44:20;;;;;;;3.67;2.53;;;;;;;19.31;33.81;101302.41;5016588;28;20049;-75
2022/04/30 08:46:48;;;;;;;2.47;2.25;;;;;;;19.43;33.44;101312.06;5018263;28;20393;-75
2022/04/30 08:49:16;;;;;;;2.85;2.35;;;;;;;19.45;34.65;101304.22;5023332;28;20037;-76
2022/04/30 08:51:43;;;;;;;3.30;2.40;;;;;;;19.47;33.43;101305.53;5016281;28;20042;-76
2022/04/30 08:54:11;;;;;;;2.90;2.67;;;;;;;19.49;32.26;101299.66;5029416;28;20050;-75
2022/04/30 08:56:51;;;;;;;3.25;2.72;;;;;;;19.50;33.29;101306.84;5020058;28;20042;-75
2022/04/30 08:59:18;;;;;;;2.53;2.25;;;;;;;19.66;33.48;101303.63;5025288;28;20049;-75
2022/04/30 09:01:52;;;;;;;2.28;2.17;;;;;;;19.69;34.26;101297.41;5012627;28;20064;-76
2022/04/30 09:04:20;;;;;;;2.72;2.50;;;;;;;19.55;33.34;101301.16;5028321;28;20042;-75
2022/04/30 09:06:55;;;;;;;3.38;2.28;;;;;;;19.69;32.94;101297.41;5014334;28;20373;-76
2022/04/30 09:09:25;;;;;;;2.63;2.38;;;;;;;19.65;31.98;101300.03;5028375;28;20057;-75
2022/04/30 09:11:56;;;;;;;2.80;2.08;;;;;;;19.75;33.08;101304.47;5026966;28;20053;-75
2022/04/30 09:14:26;;;;;;;4.88;2.60;;;;;;;19.93;32.85;101307.22;5014186;28;20477;-74
2022/04/30 09:17:25;;;;;;;2.67;2.47;;;;;;;19.98;33.77;101298.75;5012773;28;20046;-74
2022/04/30 09:20:02;;;;;;;2.42;2.22;;;;;;;20.07;33.63;101285.69;5008660;28;20104;-74
2022/04/30 09:22:33;;;;;;;3.63;2.53;;;;;;;20.14;33.19;101291.56;5032959;28;20392;-75
2022/04/30 09:25:09;;;;;;;2.55;2.35;;;;;;;20.23;33.96;101293.53;5032353;28;20040;-75
2022/04/30 09:27:57;;;;;;;5.20;2.60;;;;;;;20.16;33.17;101282.91;5032926;28;20041;-75
2022/04/30 09:30:32;;;;;;;4.63;2.53;;;;;;;20.19;33.69;101273.91;5027919;28;20065;-75
2022/04/30 09:33:09;;;;;;;2.58;2.38;;;;;;;20.32;32.13;101263.75;5028279;28;20053;-74
2022/04/30 09:38:25;;;;;;;5.82;3.67;;;;;;;20.55;32.18;101269.09;5015923;28;20408;-75
2022/04/30 09:40:58;;;;;;;3.65;2.70;;;;;;;20.61;32.57;101266.94;5025824;28;20045;-75
2022/04/30 09:43:30;;;;;;;3.53;2.75;;;;;;;20.68;33.43;101251.38;5020917;28;20037;-76
2022/04/30 09:46:07;;;;;;;5.07;2.70;;;;;;;20.98;32.85;101258.16;5031345;28;20060;-77
2022/04/30 09:54:15;;;;;;;3.20;2.90;;;;;;;20.98;32.62;101252.59;5027129;28;20042;-76
2022/04/30 09:56:47;;;;;;;3.67;2.80;;;;;;;20.91;32.14;101234.47;5012418;28;20045;-77
2022/04/30 09:59:16;;;;;;;2.55;2.35;;;;;;;20.98;31.84;101233.97;5012026;28;20045;-76
2022/04/30 10:01:47;;;;;;;3.00;2.70;;;;;;;21.08;32.92;101241.09;5027675;28;20041;-77
2022/04/30 10:04:17;;;;;;;3.47;2.80;;;;;;;20.88;33.35;101231.53;5027420;28;20042;-77
2022/04/30 10:06:48;;;;;;;3.67;2.80;;;;;;;21.02;32.96;101225.75;5013461;28;20053;-77
2022/04/30 10:09:23;;;;;;;5.13;2.75;;;;;;;20.91;30.91;101225.28;5014960;28;20046;-78
2022/04/30 10:11:56;;;;;;;3.50;3.00;;;;;;;21.03;31.26;101213.47;5012711;28;20583;-78
2022/04/30 10:14:34;;;;;;;3.10;2.80;;;;;;;21.18;32.13;101209.28;5013194;28;20046;-78
2022/04/30 10:17:13;;;;;;;2.78;2.58;;;;;;;21.35;32.65;101205.56;5016504;28;20400;-78
2022/04/30 10:19:41;;;;;;;3.17;2.65;;;;;;;21.21;33.13;101216.94;5021737;28;20069;-78
2022/04/30 10:22:15;;;;;;;3.53;2.47;;;;;;;21.00;32.75;101214.94;5013457;28;20400;-78
2022/04/30 10:24:48;;;;;;;5.00;2.72;;;;;;;20.80;32.82;101213.72;5026027;28;20045;-78
2022/04/30 10:27:17;;;;;;;3.28;2.63;;;;;;;20.89;33.32;101217.31;5012192;28;20042;-78
2022/04/30 10:29:59;;;;;;;3.10;2.80;;;;;;;21.04;31.77;101212.31;5023045;28;20041;-77
2022/04/30 10:32:32;;;;;;;3.13;2.85;;;;;;;21.20;33.40;101209.75;5016391;28;20395;-77
2022/04/30 10:35:02;;;;;;;3.42;3.13;;;;;;;21.42;31.54;101210.59;5021261;28;20046;-78
2022/04/30 10:37:33;;;;;;;4.38;3.03;;;;;;;21.44;30.08;101211.88;5023388;28;20037;-78
2022/04/30 10:40:05;;;;;;;3.15;2.83;;;;;;;21.50;31.75;101203.31;5016025;28;20499;-77
2022/04/30 10:42:41;;;;;;;3.20;2.90;;;;;;;21.53;31.54;101188.72;5028514;28;20395;-78
2022/04/30 10:45:15;;;;;;;3.38;3.08;;;;;;;21.76;32.99;101186.41;5014302;28;20502;-77
2022/04/30 10:47:52;;;;;;;3.50;2.88;;;;;;;21.98;31.90;101190.78;5021210;28;20053;-77
2022/04/30 10:50:20;;;;;;;3.97;2.72;;;;;;;21.77;30.83;101192.78;5015278;28;20041;-78
2022/04/30 10:52:49;;;;;;;3.88;3.58;;;;;;;21.53;31.86;101183.97;5012330;28;20042;-76
2022/04/30 10:55:22;;;;;;;3.70;2.70;;;;;;;21.69;32.12;101180.53;5014341;28;20041;-76
2022/04/30 10:57:50;;;;;;;3.13;2.50;;;;;;;21.70;32.15;101171.88;5011467;28;20046;-76
2022/04/30 11:00:23;;;;;;;3.30;3.00;;;;;;;21.88;32.02;101177.28;5013397;28;20061;-76
2022/04/30 11:02:50;;;;;;;4.25;3.22;;;;;;;21.66;29.28;101170.91;5011044;28;21184;-76
2022/04/30 11:05:25;;;;;;;6.18;3.20;;;;;;;22.01;30.41;101175.34;5027595;28;20076;-78
2022/04/30 11:11:59;;;;;;;3.33;3.00;;;;;;;21.81;30.36;101154.75;5031454;28;20045;-77
2022/04/30 11:14:30;;;;;;;4.40;3.10;;;;;;;21.69;33.01;101153.50;5024665;28;20045;-76
2022/04/30 11:16:58;;;;;;;3.63;2.65;;;;;;;21.79;33.61;101152.28;5031953;28;20061;-77
2022/04/30 11:19:26;;;;;;;3.00;2.80;;;;;;;21.79;33.48;101145.94;5031433;28;20041;-76
2022/04/30 11:21:56;;;;;;;2.60;2.40;;;;;;;21.92;31.94;101144.78;5031594;28;20099;-76
2022/04/30 11:24:26;;;;;;;3.90;3.42;;;;;;;22.00;31.61;101148.66;5027792;28;20050;-78
2022/04/30 11:26:59;;;;;;;3.63;2.53;;;;;;;22.06;30.84;101146.44;5018138;28;20046;-78
2022/04/30 11:29:27;;;;;;;3.95;2.88;;;;;;;21.94;31.23;101138.88;5013602;28;20411;-78
2022/04/30 11:31:56;;;;;;;4.30;3.05;;;;;;;21.93;31.84;101137.22;5017200;28;20041;-77
2022/04/30 11:34:27;;;;;;;3.85;2.60;;;;;;;21.88;31.42;101121.56;5028593;28;20045;-78
2022/04/30 11:36:57;;;;;;;3.45;2.85;;;;;;;21.92;31.85;101128.06;5028157;28;20391;-78
2022/04/30 11:39:27;;;;;;;2.67;2.45;;;;;;;21.92;30.39;101130.88;5018748;28;20052;-78
2022/04/30 11:41:58;;;;;;;2.78;2.58;;;;;;;21.86;30.16;101129.47;5018170;28;20049;-76
2022/04/30 11:44:27;;;;;;;3.30;2.95;;;;;;;21.71;29.68;101120.59;5018600;28;20050;-77
2022/04/30 11:46:56;;;;;;;3.38;2.92;;;;;;;21.77;31.44;101131.50;5026553;28;20049;-77
2022/04/30 11:49:27;;;;;;;5.43;2.92;;;;;;;21.97;32.43;101127.88;5029479;28;20079;-78
2022/04/30 11:52:11;;;;;;;2.83;2.55;;;;;;;22.08;31.40;101119.03;5029145;28;20045;-77
2022/04/30 11:54:41;;;;;;;3.33;2.88;;;;;;;22.02;31.46;101110.94;5029409;28;21305;-76
2022/04/30 11:57:09;;;;;;;3.95;2.90;;;;;;;22.09;32.48;101121.47;5030795;28;20041;-78
2022/04/30 11:59:39;;;;;;;3.63;3.03;;;;;;;22.41;31.44;101120.94;5030908;28;20049;-78
2022/04/30 12:02:10;;;;;;;3.50;3.10;;;;;;;22.48;29.66;101114.78;5032547;28;20053;-78
2022/04/30 12:04:41;;;;;;;5.20;2.85;;;;;;;22.65;31.16;101119.34;5030058;28;20049;-78
2022/04/30 12:07:14;;;;;;;3.20;2.90;;;;;;;22.62;31.39;101101.31;5032505;28;20041;-77
2022/04/30 12:09:51;;;;;;;3.70;3.03;;;;;;;22.82;30.34;101102.34;5034121;28;20045;-78
2022/04/30 12:12:22;;;;;;;3.15;2.92;;;;;;;22.88;31.16;101108.47;5032571;28;20048;-78